Time;durP1;ratioP1;P1;durP2;ratioP2;P2;SDS_P1;SDS_P2;PMS_P1;PMS_P2;Temp;Humidity;BMP_temperature;BMP_pressure;BME280_temperature;BME280_humidity;BME280_pressure;Samples;Min_cycle;Max_cycle;Signal;HPM_P1;HPM_P2
2023/08/03 00:01:37;;;;;;;4.03;1.80;;;;;;;18.22;72.38;96597.19;5038471;28;20509;-72
2023/08/03 00:04:04;;;;;;;3.67;1.97;;;;;;;18.21;69.08;96593.63;5034640;28;21072;-72
2023/08/03 00:06:31;;;;;;;4.87;1.97;;;;;;;18.41;64.47;96598.16;5038448;28;20546;-72
2023/08/03 00:08:59;;;;;;;3.40;2.00;;;;;;;18.65;62.56;96603.69;5034946;28;20485;-72
2023/08/03 00:11:26;;;;;;;3.20;1.53;;;;;;;18.73;61.29;96611.31;5037792;28;20467;-72
2023/08/03 00:13:53;;;;;;;3.10;1.70;;;;;;;18.73;60.93;96609.38;5038773;28;20520;-72
2023/08/03 00:16:19;;;;;;;4.60;1.80;;;;;;;18.90;60.36;96605.34;5040107;28;20563;-73
2023/08/03 00:18:46;;;;;;;4.40;1.87;;;;;;;18.93;60.13;96611.09;5041348;28;20519;-72
2023/08/03 00:21:13;;;;;;;5.90;2.00;;;;;;;18.91;59.81;96598.75;5030341;28;20549;-72
2023/08/03 00:23:40;;;;;;;4.33;2.40;;;;;;;18.90;59.33;96599.88;5039130;28;20550;-71
2023/08/03 00:26:08;;;;;;;9.30;3.20;;;;;;;18.93;58.67;96583.66;5038116;28;20814;-70
2023/08/03 00:28:35;;;;;;;4.40;1.97;;;;;;;18.95;59.02;96602.56;5040121;28;20506;-72
2023/08/03 00:31:01;;;;;;;4.30;1.83;;;;;;;18.97;59.57;96600.34;5037382;28;20482;-72
2023/08/03 00:33:28;;;;;;;4.30;2.10;;;;;;;18.79;59.89;96586.28;5035592;28;20577;-72
2023/08/03 00:35:56;;;;;;;3.60;1.70;;;;;;;18.84;59.72;96588.16;5035467;28;20913;-72
2023/08/03 00:38:23;;;;;;;3.70;1.80;;;;;;;18.77;59.28;96596.72;5034907;28;20466;-72
2023/08/03 00:40:50;;;;;;;5.37;2.17;;;;;;;18.66;59.80;96600.66;5034232;28;20875;-72
2023/08/03 00:43:19;;;;;;;4.10;1.80;;;;;;;18.66;59.82;96600.66;5031160;28;20506;-72
2023/08/03 00:45:46;;;;;;;3.90;2.00;;;;;;;18.52;60.34;96605.16;5035406;28;21195;-71
2023/08/03 00:48:12;;;;;;;7.40;2.30;;;;;;;18.47;60.92;96602.47;5037499;28;20900;-71
2023/08/03 00:50:40;;;;;;;5.40;2.73;;;;;;;18.47;60.93;96605.22;5037409;28;20555;-72
2023/08/03 00:53:07;;;;;;;3.93;1.70;;;;;;;18.41;61.54;96600.88;5037536;28;20479;-73
2023/08/03 00:55:34;;;;;;;4.67;1.93;;;;;;;18.35;61.60;96600.09;5036439;28;21024;-72
2023/08/03 00:58:01;;;;;;;4.60;1.70;;;;;;;18.34;61.94;96592.19;5037389;28;20491;-72
2023/08/03 01:00:29;;;;;;;3.20;1.70;;;;;;;18.30;62.46;96602.88;5039046;28;20508;-72
2023/08/03 01:02:56;;;;;;;3.17;2.00;;;;;;;18.22;62.77;96598.00;5040000;28;20505;-72
2023/08/03 01:05:25;;;;;;;3.10;1.70;;;;;;;18.25;63.14;96594.72;5039311;28;20458;-72
2023/08/03 01:07:52;;;;;;;3.20;1.60;;;;;;;18.27;62.66;96592.50;5037944;28;20455;-72
2023/08/03 01:10:19;;;;;;;4.90;2.03;;;;;;;18.27;62.90;96597.97;5033818;28;20650;-72
2023/08/03 01:12:46;;;;;;;3.60;1.70;;;;;;;18.13;63.65;96597.00;5035800;28;20483;-72
2023/08/03 01:15:13;;;;;;;4.83;2.00;;;;;;;18.23;63.48;96590.63;5039551;28;20529;-72
2023/08/03 01:17:41;;;;;;;3.63;1.77;;;;;;;18.25;63.24;96593.88;5039718;28;20481;-72
2023/08/03 01:20:09;;;;;;;3.83;2.00;;;;;;;18.31;63.07;96590.00;5036843;28;20459;-71
2023/08/03 01:22:41;;;;;;;3.03;1.60;;;;;;;18.37;62.94;96599.81;5036758;28;20910;-72
2023/08/03 01:25:08;;;;;;;2.27;1.67;;;;;;;18.47;63.14;96580.56;5039221;28;20903;-72
2023/08/03 01:27:34;;;;;;;4.97;1.70;;;;;;;18.28;63.64;96585.09;5037052;28;20448;-72
2023/08/03 01:30:01;;;;;;;6.40;2.20;;;;;;;18.23;63.91;96585.97;5034995;28;21035;-72
2023/08/03 01:32:28;;;;;;;4.17;1.77;;;;;;;18.25;64.05;96582.94;5037736;28;20851;-72
2023/08/03 01:34:55;;;;;;;4.90;1.83;;;;;;;18.24;64.27;96581.28;5036042;28;20534;-72
2023/08/03 01:37:22;;;;;;;2.90;1.57;;;;;;;18.18;64.79;96588.75;5035340;28;20464;-72
2023/08/03 01:39:50;;;;;;;4.90;2.00;;;;;;;18.15;65.37;96583.84;5038515;28;21020;-72
2023/08/03 01:42:17;;;;;;;5.70;2.23;;;;;;;18.07;65.71;96593.50;5037014;28;20522;-72
2023/08/03 01:44:45;;;;;;;6.27;2.20;;;;;;;18.06;65.85;96589.13;5033090;28;20538;-72
2023/08/03 01:47:12;;;;;;;5.17;2.03;;;;;;;18.07;65.58;96582.53;5038511;28;20992;-71
2023/08/03 01:49:39;;;;;;;6.70;2.37;;;;;;;18.05;65.79;96584.75;5040188;28;20947;-72
2023/08/03 01:52:06;;;;;;;5.67;1.80;;;;;;;18.10;65.23;96575.69;5037464;28;21129;-71
2023/08/03 01:54:33;;;;;;;6.30;2.30;;;;;;;18.08;65.24;96592.38;5037403;28;21068;-72
2023/08/03 01:57:01;;;;;;;3.67;1.90;;;;;;;18.05;65.09;96597.63;5037946;28;20454;-72
2023/08/03 01:59:27;;;;;;;4.30;1.90;;;;;;;18.00;65.06;96593.00;5036201;28;20488;-72
2023/08/03 02:01:54;;;;;;;4.93;2.00;;;;;;;18.03;64.56;96594.34;5032386;28;20471;-71
2023/08/03 02:04:21;;;;;;;6.30;2.00;;;;;;;18.03;63.99;96597.09;5036550;28;20452;-72
2023/08/03 02:06:49;;;;;;;3.40;1.80;;;;;;;17.99;64.19;96596.84;5035478;28;20535;-72
2023/08/03 02:09:16;;;;;;;3.27;1.80;;;;;;;18.03;63.88;96592.44;5033132;28;20482;-72
2023/08/03 02:11:43;;;;;;;3.63;2.10;;;;;;;17.98;64.50;96595.19;5036683;28;20502;-72
2023/08/03 02:14:10;;;;;;;4.60;1.97;;;;;;;17.95;64.35;96605.91;5034967;28;20455;-71
2023/08/03 02:16:37;;;;;;;4.63;1.80;;;;;;;17.82;64.24;96603.81;5035051;28;20455;-72
2023/08/03 02:19:04;;;;;;;3.43;1.40;;;;;;;17.79;63.81;96622.44;5037300;28;20537;-72
2023/08/03 02:21:30;;;;;;;5.57;1.67;;;;;;;17.81;64.10;96616.69;5039227;28;20486;-70
2023/08/03 02:23:57;;;;;;;5.10;1.73;;;;;;;17.79;62.76;96622.44;5035127;28;20807;-72
2023/08/03 02:26:24;;;;;;;4.50;1.60;;;;;;;17.79;62.78;96624.34;5037828;28;20544;-72
2023/08/03 02:28:50;;;;;;;3.13;1.47;;;;;;;17.82;62.36;96626.53;5038361;28;20515;-72
2023/08/03 02:31:19;;;;;;;5.20;1.90;;;;;;;17.77;62.20;96621.09;5038883;28;20535;-72
2023/08/03 02:33:45;;;;;;;4.23;1.70;;;;;;;17.75;61.80;96631.50;5037951;28;20471;-71
2023/08/03 02:36:12;;;;;;;4.23;1.57;;;;;;;17.75;61.54;96628.75;5040271;28;20454;-72
2023/08/03 02:38:39;;;;;;;3.33;1.53;;;;;;;17.76;61.45;96647.63;5034124;28;20459;-71
2023/08/03 02:41:06;;;;;;;2.40;1.20;;;;;;;17.71;61.00;96616.72;5037224;28;20460;-72
2023/08/03 02:43:32;;;;;;;4.53;1.50;;;;;;;17.81;61.25;96649.53;5035337;28;20517;-71
2023/08/03 02:45:59;;;;;;;4.47;1.57;;;;;;;17.76;61.69;96644.06;5037652;28;20593;-72
2023/08/03 02:48:27;;;;;;;3.40;1.60;;;;;;;17.74;61.92;96633.41;5037267;28;20471;-71
2023/08/03 02:50:54;;;;;;;4.33;2.47;;;;;;;17.64;62.62;96643.56;5033573;28;20534;-71
2023/08/03 02:53:21;;;;;;;3.33;1.50;;;;;;;17.56;63.27;96649.59;5033744;28;20558;-71
2023/08/03 02:55:48;;;;;;;3.20;1.87;;;;;;;17.45;64.15;96646.94;5037416;28;21481;-72
2023/08/03 02:58:14;;;;;;;4.10;1.77;;;;;;;17.34;64.60;96656.28;5034791;28;20982;-72
2023/08/03 03:00:41;;;;;;;3.40;1.50;;;;;;;17.31;64.83;96640.41;5034754;28;20471;-70
2023/08/03 03:03:08;;;;;;;3.67;1.80;;;;;;;17.32;64.76;96652.16;5036892;28;20503;-72
2023/08/03 03:05:36;;;;;;;2.40;1.30;;;;;;;17.20;65.01;96643.50;5035261;28;20726;-72
2023/08/03 03:08:04;;;;;;;3.47;1.50;;;;;;;17.17;65.36;96654.97;5032270;28;20459;-72
2023/08/03 03:10:31;;;;;;;4.20;1.37;;;;;;;17.14;65.83;96645.41;5034364;28;20594;-71
2023/08/03 03:12:57;;;;;;;3.17;1.33;;;;;;;17.11;66.14;96646.78;5037447;28;20472;-72
2023/08/03 03:15:24;;;;;;;3.23;1.90;;;;;;;16.98;66.51;96657.47;5037006;28;20451;-72
2023/08/03 03:17:51;;;;;;;3.40;1.40;;;;;;;17.01;66.50;96662.38;5035443;28;20957;-71
2023/08/03 03:20:18;;;;;;;4.40;1.60;;;;;;;16.94;66.86;96656.38;5037119;28;20814;-71
2023/08/03 03:22:46;;;;;;;3.47;1.30;;;;;;;16.99;66.82;96659.13;5035426;28;20490;-72
2023/08/03 03:25:13;;;;;;;3.53;1.60;;;;;;;16.90;67.44;96666.22;5039887;28;20963;-71
2023/08/03 03:27:39;;;;;;;5.07;1.73;;;;;;;16.87;67.27;96658.59;5034879;28;20467;-70
2023/08/03 03:30:08;;;;;;;3.77;1.53;;;;;;;16.91;66.99;96668.69;5039007;28;20600;-71
2023/08/03 03:32:34;;;;;;;2.87;1.40;;;;;;;16.94;66.70;96653.66;5035245;28;20480;-71
2023/08/03 03:35:01;;;;;;;6.73;1.80;;;;;;;16.90;67.22;96658.84;5035610;28;20478;-72
2023/08/03 03:37:28;;;;;;;5.27;1.93;;;;;;;16.85;67.23;96679.94;5034919;28;20463;-71
2023/08/03 03:39:56;;;;;;;4.13;1.87;;;;;;;16.84;67.42;96659.16;5034962;28;20543;-71
2023/08/03 03:42:23;;;;;;;3.63;1.50;;;;;;;16.85;67.29;96663.53;5034042;28;20478;-71
2023/08/03 03:44:50;;;;;;;5.47;1.70;;;;;;;16.86;67.23;96644.13;5034522;28;20455;-71
2023/08/03 03:47:16;;;;;;;3.60;1.50;;;;;;;16.78;67.31;96664.63;5035241;28;20539;-71
2023/08/03 03:49:43;;;;;;;4.57;2.03;;;;;;;16.74;67.30;96658.06;5036834;28;22282;-72
2023/08/03 03:52:10;;;;;;;5.40;1.93;;;;;;;16.86;67.38;96665.16;5033561;28;20577;-72
2023/08/03 03:54:37;;;;;;;6.27;2.13;;;;;;;16.74;67.32;96674.47;5034806;28;20483;-71
2023/08/03 03:57:06;;;;;;;4.40;1.53;;;;;;;16.78;66.60;96674.75;5034336;28;20456;-73
2023/08/03 03:59:33;;;;;;;5.70;2.10;;;;;;;16.82;66.22;96677.75;5034471;28;20863;-72
2023/08/03 04:02:00;;;;;;;5.07;1.90;;;;;;;16.66;67.09;96679.66;5034309;28;20614;-72
2023/08/03 04:04:26;;;;;;;5.30;1.87;;;;;;;16.64;67.48;96684.56;5035941;28;20505;-72
2023/08/03 04:06:53;;;;;;;2.57;1.40;;;;;;;16.63;67.21;96677.44;5033711;28;20849;-72
2023/08/03 04:09:20;;;;;;;5.87;1.50;;;;;;;16.66;67.32;96693.31;5033563;28;20573;-72
2023/08/03 04:11:47;;;;;;;5.03;1.60;;;;;;;16.59;66.71;96695.47;5030304;28;20530;-74
2023/08/03 04:14:15;;;;;;;3.83;1.80;;;;;;;16.57;66.55;96675.81;5033210;28;20455;-74
2023/08/03 04:16:42;;;;;;;5.80;1.87;;;;;;;16.60;66.15;96692.47;5032911;28;20490;-72
2023/08/03 04:19:09;;;;;;;3.20;1.40;;;;;;;16.57;65.97;96684.81;5033327;28;21378;-73
2023/08/03 04:21:35;;;;;;;3.90;1.57;;;;;;;16.58;65.96;96691.91;5035081;28;20468;-73
2023/08/03 04:24:02;;;;;;;6.53;1.50;;;;;;;16.60;65.69;96695.19;5031434;28;20487;-73
2023/08/03 04:26:29;;;;;;;3.00;1.50;;;;;;;16.59;65.68;96709.94;5032708;28;20464;-73
2023/08/03 04:28:56;;;;;;;4.40;1.57;;;;;;;16.63;65.52;96716.50;5038996;28;20890;-70
2023/08/03 04:31:27;;;;;;;6.60;2.20;;;;;;;16.59;65.89;96726.34;5036762;28;20836;-71
2023/08/03 04:33:53;;;;;;;3.43;1.40;;;;;;;16.55;66.19;96741.66;5033451;28;20455;-72
2023/08/03 04:36:20;;;;;;;4.50;1.20;;;;;;;16.62;65.83;96742.19;5034726;28;20543;-78
2023/08/03 04:38:47;;;;;;;3.43;1.20;;;;;;;16.62;65.76;96747.66;5022254;28;20547;-72
2023/08/03 04:41:16;;;;;;;4.57;1.50;;;;;;;16.66;65.90;96743.31;5021450;28;20459;-73
2023/08/03 04:43:43;;;;;;;3.07;1.47;;;;;;;16.58;65.45;96746.53;4985717;28;20481;-69
2023/08/03 04:46:10;;;;;;;2.20;1.40;;;;;;;16.69;64.62;96741.94;5000643;28;20588;-67
2023/08/03 04:48:39;;;;;;;3.70;1.57;;;;;;;16.74;63.92;96750.16;5011622;28;20463;-68
2023/08/03 04:51:06;;;;;;;3.10;1.17;;;;;;;16.87;63.30;96748.78;5007504;28;20511;-70
2023/08/03 04:53:33;;;;;;;3.20;1.57;;;;;;;16.86;63.01;96755.34;5008227;28;20860;-69
2023/08/03 04:55:59;;;;;;;5.00;1.30;;;;;;;16.91;63.17;96758.06;4992020;28;20883;-78
2023/08/03 04:58:26;;;;;;;4.60;1.40;;;;;;;16.83;63.36;96769.56;5025385;28;20463;-73
2023/08/03 05:00:53;;;;;;;4.90;1.93;;;;;;;16.89;62.87;96768.47;5025307;28;21537;-72
2023/08/03 05:03:20;;;;;;;3.63;1.67;;;;;;;16.84;62.49;96761.09;5022475;28;20487;-72
2023/08/03 05:05:48;;;;;;;4.83;2.00;;;;;;;16.90;62.62;96775.56;5029299;28;20468;-73
2023/08/03 05:08:15;;;;;;;2.67;1.30;;;;;;;16.81;61.82;96758.09;5026941;28;20538;-73
2023/08/03 05:10:42;;;;;;;1.50;1.23;;;;;;;16.98;61.87;96773.09;5033124;28;20509;-73
2023/08/03 05:13:09;;;;;;;1.70;1.00;;;;;;;17.00;61.89;96781.84;5035101;28;20479;-73
2023/08/03 05:15:35;;;;;;;2.50;1.10;;;;;;;17.02;62.06;96787.03;5037879;28;20487;-74
2023/08/03 05:18:02;;;;;;;2.77;1.37;;;;;;;17.12;62.04;96795.25;5028833;28;20543;-80
2023/08/03 05:20:29;;;;;;;4.03;1.33;;;;;;;17.14;61.95;96801.25;5035405;28;20799;-75
2023/08/03 05:22:58;;;;;;;3.43;1.10;;;;;;;17.28;61.67;96810.53;5031088;28;20498;-73
2023/08/03 05:25:25;;;;;;;4.03;1.20;;;;;;;17.33;61.71;96799.59;5035053;28;20452;-73
2023/08/03 05:27:52;;;;;;;4.17;1.50;;;;;;;17.25;61.81;96811.06;5035120;28;20530;-73
2023/08/03 05:30:19;;;;;;;1.17;0.90;;;;;;;17.25;61.60;96804.78;5034532;28;20523;-74
2023/08/03 05:32:45;;;;;;;3.20;1.23;;;;;;;17.26;61.73;96812.72;5033441;28;21160;-73
2023/08/03 05:35:13;;;;;;;3.07;1.07;;;;;;;17.42;61.60;96811.63;5040389;28;20490;-73
2023/08/03 05:37:40;;;;;;;1.80;1.10;;;;;;;17.27;62.22;96817.09;5041528;28;20439;-72
2023/08/03 05:40:09;;;;;;;2.57;1.03;;;;;;;17.25;62.27;96808.34;5039628;28;21024;-73
2023/08/03 05:42:38;;;;;;;1.93;1.00;;;;;;;17.29;62.28;96825.03;5034867;28;21113;-72
2023/08/03 05:45:12;;;;;;;1.47;0.70;;;;;;;17.26;62.54;96818.19;5037595;28;20455;-72
2023/08/03 05:47:39;;;;;;;1.17;0.87;;;;;;;17.33;63.06;96826.94;5038377;28;21293;-72
2023/08/03 05:50:13;;;;;;;2.00;1.00;;;;;;;17.30;63.34;96824.75;5039070;28;20483;-73
2023/08/03 05:52:40;;;;;;;1.67;0.80;;;;;;;17.33;63.44;96823.38;5041555;28;20537;-72
2023/08/03 05:55:10;;;;;;;2.03;0.80;;;;;;;17.20;63.90;96835.72;5037571;28;20456;-72
2023/08/03 05:57:37;;;;;;;2.30;1.00;;;;;;;17.11;64.64;96826.41;5036712;28;20490;-72
2023/08/03 06:00:05;;;;;;;2.80;0.93;;;;;;;17.19;64.69;96828.59;5034369;28;20470;-72
2023/08/03 06:02:33;;;;;;;1.70;1.00;;;;;;;17.10;65.24;96835.72;5034633;28;20494;-71
2023/08/03 06:05:00;;;;;;;1.77;0.80;;;;;;;17.05;65.09;96832.97;5041072;28;20451;-73
2023/08/03 06:07:27;;;;;;;1.43;0.80;;;;;;;17.12;65.29;96839.00;5036754;28;20459;-73
2023/08/03 06:09:54;;;;;;;1.10;0.70;;;;;;;17.05;65.55;96854.84;5041315;28;20474;-72
2023/08/03 06:12:22;;;;;;;1.30;0.90;;;;;;;17.15;65.69;96849.38;5038141;28;20495;-73
2023/08/03 06:14:49;;;;;;;2.70;0.87;;;;;;;17.00;66.71;96852.09;5038767;28;21060;-72
2023/08/03 06:17:21;;;;;;;1.30;0.70;;;;;;;16.93;67.27;96859.75;5034643;28;20448;-72
2023/08/03 06:19:48;;;;;;;2.93;0.80;;;;;;;16.57;68.41;96862.38;5037033;28;20461;-72
2023/08/03 06:22:18;;;;;;;2.30;0.70;;;;;;;16.58;69.04;96866.75;5035435;28;20483;-72
2023/08/03 06:24:44;;;;;;;1.63;0.70;;;;;;;16.49;70.02;96857.47;5045122;28;21330;-72
2023/08/03 06:27:12;;;;;;;0.70;0.60;;;;;;;16.43;70.82;96858.53;5032458;28;20605;-72
2023/08/03 06:29:41;;;;;;;1.33;0.70;;;;;;;16.56;70.61;96858.03;5036923;28;20453;-72
2023/08/03 06:32:14;;;;;;;1.77;0.70;;;;;;;16.55;70.84;96861.84;5035963;28;20492;-72
2023/08/03 06:34:41;;;;;;;1.33;0.80;;;;;;;16.61;70.90;96860.75;5036564;28;21046;-72
2023/08/03 06:37:08;;;;;;;1.33;0.90;;;;;;;16.73;70.50;96860.53;5035796;28;20495;-72
2023/08/03 06:39:35;;;;;;;2.03;0.90;;;;;;;16.76;68.32;96871.75;5034668;28;20516;-72
2023/08/03 06:42:04;;;;;;;1.70;0.83;;;;;;;17.04;68.50;96869.59;5037671;28;20484;-72
2023/08/03 06:44:31;;;;;;;2.83;0.77;;;;;;;17.17;67.39;96869.06;5033657;28;20452;-72
2023/08/03 06:46:59;;;;;;;2.50;1.03;;;;;;;17.28;66.14;96867.97;5035233;28;20521;-72
2023/08/03 06:49:26;;;;;;;1.83;1.30;;;;;;;17.40;64.77;96865.78;5035464;28;20462;-72
2023/08/03 06:51:53;;;;;;;2.50;0.90;;;;;;;17.70;61.03;96866.88;5044262;28;20498;-72
2023/08/03 06:54:20;;;;;;;2.30;1.10;;;;;;;17.81;60.43;96876.72;5039398;28;20487;-72
2023/08/03 06:56:47;;;;;;;2.30;1.27;;;;;;;17.95;59.11;96866.81;5034175;28;20467;-72
2023/08/03 06:59:20;;;;;;;2.10;1.10;;;;;;;18.07;58.47;96874.72;5038835;28;20464;-73
2023/08/03 07:01:48;;;;;;;3.13;1.10;;;;;;;18.16;57.14;96891.41;5040770;28;20914;-73
2023/08/03 07:04:16;;;;;;;2.47;1.50;;;;;;;18.29;55.97;96890.78;5035804;28;20567;-72
2023/08/03 07:06:46;;;;;;;1.60;1.00;;;;;;;18.16;55.62;96884.00;5035261;28;20465;-71
2023/08/03 07:09:13;;;;;;;1.30;0.90;;;;;;;18.18;54.80;96900.97;5035383;28;20466;-73
2023/08/03 07:11:39;;;;;;;2.90;1.17;;;;;;;18.22;54.97;96876.56;5036282;28;21188;-72
2023/08/03 07:14:08;;;;;;;2.10;1.27;;;;;;;18.23;54.21;96880.94;5036097;28;21245;-72
2023/08/03 07:16:36;;;;;;;3.10;1.13;;;;;;;18.36;55.09;96885.84;5039236;28;20891;-72
2023/08/03 07:19:06;;;;;;;2.07;1.20;;;;;;;18.48;53.73;96889.09;5038200;28;20472;-72
2023/08/03 08:32:39;;;;;;;2.97;1.00;;;;;;;19.47;52.10;96933.75;5035598;28;20785;-72
2023/08/03 08:35:07;;;;;;;2.80;1.10;;;;;;;19.79;51.69;96936.81;5035005;28;20538;-72
2023/08/03 08:37:34;;;;;;;3.50;1.10;;;;;;;20.03;51.48;96928.63;5043457;28;20444;-73
2023/08/03 08:40:00;;;;;;;1.73;0.90;;;;;;;19.93;50.80;96939.69;5031532;28;20487;-73
2023/08/03 08:42:27;;;;;;;1.67;0.90;;;;;;;20.25;49.58;96933.59;5034106;28;20838;-72
2023/08/03 08:44:54;;;;;;;1.43;0.80;;;;;;;20.33;49.69;96945.88;5031988;28;20459;-73
2023/08/03 08:47:21;;;;;;;1.30;0.93;;;;;;;20.27;48.90;96947.03;5033149;28;20530;-72
2023/08/03 08:49:49;;;;;;;2.27;1.20;;;;;;;19.98;48.99;96934.16;5032911;28;20495;-71
2023/08/03 08:52:17;;;;;;;1.40;1.10;;;;;;;20.84;47.54;96948.03;5031797;28;20490;-71
2023/08/03 08:54:44;;;;;;;1.83;0.90;;;;;;;21.91;45.33;96939.03;5030523;28;20498;-72
2023/08/03 08:57:11;;;;;;;1.20;0.80;;;;;;;21.72;45.55;96939.09;5032094;28;20467;-71
2023/08/03 08:59:38;;;;;;;2.10;1.20;;;;;;;21.75;45.84;96957.78;5034332;28;20449;-72
2023/08/03 09:02:06;;;;;;;1.50;0.90;;;;;;;22.27;44.03;96945.56;5032522;28;20489;-71
2023/08/03 09:04:34;;;;;;;2.00;0.93;;;;;;;21.81;45.05;96953.78;5036469;28;20544;-72
2023/08/03 09:07:02;;;;;;;1.43;0.77;;;;;;;21.79;45.01;96967.84;5035113;28;20498;-71
2023/08/03 09:09:33;;;;;;;1.20;0.90;;;;;;;21.65;45.49;96957.94;5035902;28;20826;-71
2023/08/03 09:11:59;;;;;;;2.37;1.10;;;;;;;20.98;47.30;96965.47;5038798;28;20487;-71
2023/08/03 09:14:26;;;;;;;1.67;0.90;;;;;;;20.64;49.35;96963.69;5038282;28;20552;-72
2023/08/03 09:16:53;;;;;;;2.70;0.93;;;;;;;20.60;49.56;96970.88;5039082;28;20461;-71
2023/08/03 09:19:35;;;;;;;2.80;0.90;;;;;;;20.62;48.91;96982.41;5041672;28;20464;-73
2023/08/03 09:22:04;;;;;;;1.33;0.93;;;;;;;20.62;48.21;96976.09;5043906;28;20482;-71
2023/08/03 09:24:31;;;;;;;1.33;0.77;;;;;;;20.26;48.94;96976.47;5036370;28;20465;-71
2023/08/03 09:26:57;;;;;;;2.10;1.13;;;;;;;20.56;49.68;97005.56;5035258;28;20458;-72
2023/08/03 09:29:29;;;;;;;1.70;0.83;;;;;;;20.36;48.88;96973.59;5039655;28;20461;-72
2023/08/03 09:32:03;;;;;;;1.63;0.80;;;;;;;20.39;49.15;96983.25;5037211;28;20534;-72
2023/08/03 09:34:37;;;;;;;2.50;0.73;;;;;;;20.48;49.39;96992.47;5034515;28;21048;-72
2023/08/03 09:37:06;;;;;;;2.77;0.87;;;;;;;20.53;50.29;96984.16;5036888;28;20489;-72
2023/08/03 09:39:34;;;;;;;5.63;1.67;;;;;;;20.89;50.06;96992.81;5034890;28;20999;-71
2023/08/03 09:42:04;;;;;;;0.90;0.57;;;;;;;20.66;49.29;97005.47;5038082;28;20481;-71
2023/08/03 09:44:33;;;;;;;1.20;0.73;;;;;;;20.54;49.00;96991.31;5036950;28;20990;-71
2023/08/03 09:47:01;;;;;;;0.90;0.73;;;;;;;20.92;48.98;96994.97;5037117;28;20453;-71
2023/08/03 09:49:28;;;;;;;1.97;0.70;;;;;;;20.76;49.31;96999.88;5039915;28;20459;-73
2023/08/03 09:51:57;;;;;;;3.33;1.07;;;;;;;20.23;50.00;96995.44;5035812;28;20507;-72
2023/08/03 09:54:36;;;;;;;0.90;0.60;;;;;;;20.07;50.98;96984.63;5035919;28;20491;-73
2023/08/03 09:57:05;;;;;;;1.40;0.60;;;;;;;20.39;50.46;97003.28;5032022;28;20468;-72
2023/08/03 09:59:34;;;;;;;2.13;0.90;;;;;;;21.27;49.30;97015.75;5033073;28;20969;-73
2023/08/03 10:02:02;;;;;;;1.83;0.73;;;;;;;20.73;48.29;97005.13;5036051;28;21024;-73
2023/08/03 10:04:31;;;;;;;1.20;0.90;;;;;;;20.69;48.39;97009.56;5035638;28;20520;-73
2023/08/03 10:07:01;;;;;;;2.87;0.77;;;;;;;20.38;49.22;97014.59;5031658;28;20460;-73
2023/08/03 10:09:38;;;;;;;2.23;0.90;;;;;;;20.57;49.82;97004.47;5030661;28;20484;-73
2023/08/03 10:12:06;;;;;;;1.47;0.60;;;;;;;20.35;49.77;97015.94;5036179;28;20491;-72
2023/08/03 10:14:33;;;;;;;2.37;0.77;;;;;;;20.11;50.97;97040.63;5040492;28;20994;-73
2023/08/03 10:17:01;;;;;;;2.03;0.83;;;;;;;20.19;50.42;97033.66;5037684;28;20617;-72
2023/08/03 10:19:28;;;;;;;2.40;1.00;;;;;;;20.19;50.44;97028.19;5037403;28;20487;-73
2023/08/03 10:21:55;;;;;;;1.10;0.90;;;;;;;20.46;50.38;97035.94;5035843;28;20480;-72
2023/08/03 10:24:22;;;;;;;1.03;0.70;;;;;;;20.72;49.65;97018.06;5035196;28;20506;-73
2023/08/03 10:26:54;;;;;;;3.17;0.90;;;;;;;20.96;49.53;97022.72;5036450;28;20478;-72
2023/08/03 10:29:54;;;;;;;1.70;0.70;;;;;;;21.00;49.92;97015.53;5041507;28;20452;-73
2023/08/03 10:32:22;;;;;;;1.73;0.87;;;;;;;21.26;48.67;97025.13;5040612;28;20609;-73
2023/08/03 10:34:51;;;;;;;2.10;0.93;;;;;;;21.28;48.85;97022.06;5036847;28;20463;-73
2023/08/03 10:37:17;;;;;;;1.13;0.80;;;;;;;21.18;48.22;97039.50;5039220;28;20546;-73
2023/08/03 10:39:53;;;;;;;1.10;0.80;;;;;;;20.98;49.21;97034.25;5035249;28;20469;-73
2023/08/03 10:42:34;;;;;;;1.40;0.77;;;;;;;20.79;48.33;97037.75;5038113;28;20557;-73
2023/08/03 10:45:31;;;;;;;1.43;0.80;;;;;;;21.03;48.18;97040.53;5033390;28;20451;-72
2023/08/03 10:48:31;;;;;;;2.57;0.83;;;;;;;20.72;48.76;97031.81;4935337;29;20449;-72
2023/08/03 10:50:59;;;;;;;2.40;0.90;;;;;;;20.80;48.19;97044.91;5040234;28;20558;-72
2023/08/03 10:53:26;;;;;;;1.40;0.70;;;;;;;20.57;48.52;97040.22;5035146;28;20548;-72
2023/08/03 10:56:04;;;;;;;1.87;0.83;;;;;;;20.60;49.20;97055.31;5029852;28;20460;-72
2023/08/03 10:58:42;;;;;;;1.10;1.00;;;;;;;20.98;47.68;97045.25;5037901;28;20456;-73
2023/08/03 11:01:09;;;;;;;1.07;0.70;;;;;;;21.01;47.42;97044.69;5033661;28;20518;-73
2023/08/03 11:03:36;;;;;;;2.83;0.70;;;;;;;21.32;47.28;97051.47;5035170;28;20439;-73
2023/08/03 11:06:03;;;;;;;1.77;0.87;;;;;;;21.13;47.55;97053.31;5036676;28;20486;-72
2023/08/03 11:08:30;;;;;;;2.00;1.37;;;;;;;20.87;48.06;97050.06;5035403;28;20503;-73
2023/08/03 11:10:57;;;;;;;1.77;1.10;;;;;;;20.89;47.60;97052.50;5041346;28;20479;-74
2023/08/03 11:13:24;;;;;;;1.07;0.77;;;;;;;20.83;48.76;97048.19;5037083;28;20499;-73
2023/08/03 11:15:52;;;;;;;1.30;0.90;;;;;;;21.29;47.82;97065.81;5035264;28;20543;-73
2023/08/03 11:18:19;;;;;;;2.50;0.90;;;;;;;21.25;47.76;97061.19;5035752;28;20464;-73
2023/08/03 11:20:46;;;;;;;1.33;0.90;;;;;;;20.80;47.86;97061.41;5034853;28;20563;-72
2023/08/03 11:23:13;;;;;;;1.07;0.97;;;;;;;20.89;47.60;97058.84;5032509;28;20490;-73
2023/08/03 11:25:40;;;;;;;1.30;0.97;;;;;;;20.72;48.04;97031.81;5036768;28;20549;-72
2023/08/03 11:28:07;;;;;;;1.83;0.73;;;;;;;20.57;48.99;97062.22;5034307;28;20458;-72
2023/08/03 11:30:33;;;;;;;1.50;0.70;;;;;;;20.81;48.08;97062.22;5036221;28;20477;-73
2023/08/03 11:33:01;;;;;;;3.60;1.23;;;;;;;21.04;47.38;97042.16;5036123;28;20854;-71
2023/08/03 11:35:29;;;;;;;0.83;0.60;;;;;;;21.67;46.85;97039.13;5035202;28;20516;-72
2023/08/03 11:37:55;;;;;;;1.33;0.90;;;;;;;21.65;45.88;97048.81;5036804;28;20841;-72
2023/08/03 11:40:22;;;;;;;0.80;0.60;;;;;;;21.69;45.80;97028.66;5030555;28;20518;-73
2023/08/03 11:42:49;;;;;;;1.70;0.80;;;;;;;21.88;45.44;97025.03;5035702;28;20943;-72
2023/08/03 11:45:18;;;;;;;1.27;0.70;;;;;;;22.10;45.27;97050.88;5034001;28;20471;-72
2023/08/03 11:47:46;;;;;;;1.90;0.77;;;;;;;22.34;44.65;97036.16;5039598;28;20452;-73
2023/08/03 11:50:17;;;;;;;2.00;1.00;;;;;;;22.61;43.41;97041.72;5036034;28;20542;-72
2023/08/03 11:52:44;;;;;;;2.13;0.80;;;;;;;22.06;45.06;97049.88;5035579;28;20488;-72
2023/08/03 11:55:26;;;;;;;1.20;0.90;;;;;;;22.52;43.79;97049.06;5032664;28;20499;-73
2023/08/03 11:58:11;;;;;;;0.90;0.80;;;;;;;22.83;42.29;97048.53;5034911;28;20452;-73
2023/08/03 12:00:37;;;;;;;2.20;0.80;;;;;;;23.17;42.31;97070.22;5033214;28;20842;-72
2023/08/03 12:03:04;;;;;;;1.73;0.80;;;;;;;22.25;43.59;97057.28;5037900;28;20523;-72
2023/08/03 12:05:46;;;;;;;1.40;0.70;;;;;;;22.09;43.76;97079.56;5037399;28;20448;-72
2023/08/03 12:08:13;;;;;;;1.13;0.87;;;;;;;22.60;42.83;97062.16;5034725;28;20462;-73
2023/08/03 12:10:40;;;;;;;1.63;0.70;;;;;;;23.40;41.76;97056.16;5038296;28;20471;-72
2023/08/03 12:13:06;;;;;;;1.20;0.70;;;;;;;23.38;41.20;97058.44;5036698;28;21005;-72
2023/08/03 12:15:33;;;;;;;1.10;0.80;;;;;;;22.97;41.65;97060.41;5021451;28;20570;-72
2023/08/03 12:18:00;;;;;;;1.10;0.80;;;;;;;23.15;41.25;97065.00;5024649;28;20509;-72
2023/08/03 12:20:27;;;;;;;0.80;0.60;;;;;;;23.04;41.56;97052.53;5021687;28;21079;-73
2023/08/03 12:22:55;;;;;;;1.27;0.80;;;;;;;22.58;43.42;97069.09;5022713;28;20548;-72
2023/08/03 12:25:22;;;;;;;1.20;0.80;;;;;;;22.49;43.67;97074.50;5025204;28;20457;-72
2023/08/03 12:27:48;;;;;;;1.10;0.80;;;;;;;22.37;44.52;97077.75;5030718;28;20451;-73
2023/08/03 12:30:15;;;;;;;1.10;0.70;;;;;;;22.31;45.32;97081.69;5030360;28;21883;-73
2023/08/03 12:32:42;;;;;;;1.23;0.80;;;;;;;22.12;46.16;97078.97;5025745;28;21424;-72
2023/08/03 12:35:10;;;;;;;0.90;0.60;;;;;;;22.28;45.56;97092.50;5028818;28;20547;-72
2023/08/03 12:37:37;;;;;;;1.33;0.77;;;;;;;22.07;45.76;97112.13;5029202;28;20528;-72
2023/08/03 12:40:06;;;;;;;1.10;0.70;;;;;;;22.24;45.30;97099.75;5033831;28;20475;-73
2023/08/03 12:42:33;;;;;;;1.73;0.60;;;;;;;21.52;47.23;97104.63;5045585;28;20515;-73
2023/08/03 12:45:00;;;;;;;1.27;0.60;;;;;;;21.25;48.27;97095.03;5050240;28;20483;-72
2023/08/03 12:47:26;;;;;;;0.80;0.70;;;;;;;21.64;46.00;97111.34;5038738;28;20512;-73
2023/08/03 12:49:57;;;;;;;0.90;0.70;;;;;;;22.48;45.00;97083.06;5033049;28;20447;-74